sensor_id;sensor_type;location;lat;lon;timestamp;P1;durP1;ratioP1;P2;durP2;ratioP2
64571;SDS011;51155;51.984;21.208;2023-11-22T00:00:33;4.50;;;2.30;;
64571;SDS011;51155;51.984;21.208;2023-11-22T00:03:05;3.20;;;2.20;;
64571;SDS011;51155;51.984;21.208;2023-11-22T00:05:37;5.00;;;2.20;;
64571;SDS011;51155;51.984;21.208;2023-11-22T00:08:08;4.00;;;1.90;;
64571;SDS011;51155;51.984;21.208;2023-11-22T00:10:40;3.70;;;2.00;;
64571;SDS011;51155;51.984;21.208;2023-11-22T00:13:11;3.30;;;2.20;;
64571;SDS011;51155;51.984;21.208;2023-11-22T00:15:43;3.10;;;1.90;;
64571;SDS011;51155;51.984;21.208;2023-11-22T00:18:15;3.10;;;2.00;;
64571;SDS011;51155;51.984;21.208;2023-11-22T00:20:47;3.50;;;2.10;;
64571;SDS011;51155;51.984;21.208;2023-11-22T00:23:20;3.30;;;2.10;;
64571;SDS011;51155;51.984;21.208;2023-11-22T00:25:52;3.80;;;2.10;;
64571;SDS011;51155;51.984;21.208;2023-11-22T00:28:24;3.40;;;1.80;;
64571;SDS011;51155;51.984;21.208;2023-11-22T00:30:55;3.10;;;2.00;;
64571;SDS011;51155;51.984;21.208;2023-11-22T00:33:29;3.10;;;2.20;;
64571;SDS011;51155;51.984;21.208;2023-11-22T00:36:10;3.50;;;2.10;;
64571;SDS011;51155;51.984;21.208;2023-11-22T00:38:41;2.80;;;2.00;;
64571;SDS011;51155;51.984;21.208;2023-11-22T00:41:13;2.90;;;2.20;;
64571;SDS011;51155;51.984;21.208;2023-11-22T00:43:48;3.80;;;2.00;;
64571;SDS011;51155;51.984;21.208;2023-11-22T00:46:19;3.40;;;1.90;;
64571;SDS011;51155;51.984;21.208;2023-11-22T00:48:51;3.40;;;2.10;;
64571;SDS011;51155;51.984;21.208;2023-11-22T00:51:23;3.30;;;2.30;;
64571;SDS011;51155;51.984;21.208;2023-11-22T00:54:04;3.00;;;2.00;;
64571;SDS011;51155;51.984;21.208;2023-11-22T00:56:36;3.20;;;2.30;;
64571;SDS011;51155;51.984;21.208;2023-11-22T00:59:08;5.30;;;2.30;;
64571;SDS011;51155;51.984;21.208;2023-11-22T01:01:40;3.30;;;2.20;;
64571;SDS011;51155;51.984;21.208;2023-11-22T01:04:13;4.20;;;2.20;;
64571;SDS011;51155;51.984;21.208;2023-11-22T01:06:45;4.20;;;2.00;;
64571;SDS011;51155;51.984;21.208;2023-11-22T01:09:16;3.60;;;2.10;;
64571;SDS011;51155;51.984;21.208;2023-11-22T01:11:48;2.60;;;1.90;;
64571;SDS011;51155;51.984;21.208;2023-11-22T01:14:20;2.80;;;2.20;;
64571;SDS011;51155;51.984;21.208;2023-11-22T01:16:52;3.90;;;2.10;;
64571;SDS011;51155;51.984;21.208;2023-11-22T01:19:23;2.80;;;2.00;;
64571;SDS011;51155;51.984;21.208;2023-11-22T01:21:55;2.70;;;1.50;;
64571;SDS011;51155;51.984;21.208;2023-11-22T01:24:27;3.30;;;1.70;;
64571;SDS011;51155;51.984;21.208;2023-11-22T01:26:59;2.80;;;2.00;;
64571;SDS011;51155;51.984;21.208;2023-11-22T01:29:32;3.10;;;2.00;;
64571;SDS011;51155;51.984;21.208;2023-11-22T01:32:03;3.70;;;1.80;;
64571;SDS011;51155;51.984;21.208;2023-11-22T01:34:36;2.80;;;2.00;;
64571;SDS011;51155;51.984;21.208;2023-11-22T01:37:07;3.50;;;2.30;;
64571;SDS011;51155;51.984;21.208;2023-11-22T01:39:40;3.50;;;2.00;;
64571;SDS011;51155;51.984;21.208;2023-11-22T01:42:13;2.40;;;1.70;;
64571;SDS011;51155;51.984;21.208;2023-11-22T01:44:44;2.20;;;1.60;;
64571;SDS011;51155;51.984;21.208;2023-11-22T01:47:16;3.90;;;2.20;;
64571;SDS011;51155;51.984;21.208;2023-11-22T01:49:54;3.20;;;1.80;;
64571;SDS011;51155;51.984;21.208;2023-11-22T01:52:26;3.00;;;1.90;;
64571;SDS011;51155;51.984;21.208;2023-11-22T01:54:57;3.50;;;2.20;;
64571;SDS011;51155;51.984;21.208;2023-11-22T01:57:35;3.30;;;2.00;;
64571;SDS011;51155;51.984;21.208;2023-11-22T02:00:12;3.40;;;2.00;;
64571;SDS011;51155;51.984;21.208;2023-11-22T02:02:46;3.80;;;2.00;;
64571;SDS011;51155;51.984;21.208;2023-11-22T02:05:18;3.90;;;1.80;;
64571;SDS011;51155;51.984;21.208;2023-11-22T02:07:50;3.00;;;1.80;;
64571;SDS011;51155;51.984;21.208;2023-11-22T02:10:22;2.70;;;1.70;;
64571;SDS011;51155;51.984;21.208;2023-11-22T02:12:55;3.10;;;1.80;;
64571;SDS011;51155;51.984;21.208;2023-11-22T02:15:27;2.30;;;1.70;;
64571;SDS011;51155;51.984;21.208;2023-11-22T02:17:59;2.60;;;1.70;;
64571;SDS011;51155;51.984;21.208;2023-11-22T02:20:42;3.30;;;2.00;;
64571;SDS011;51155;51.984;21.208;2023-11-22T02:23:14;3.20;;;1.90;;
64571;SDS011;51155;51.984;21.208;2023-11-22T02:25:45;3.10;;;2.00;;
64571;SDS011;51155;51.984;21.208;2023-11-22T02:28:21;3.30;;;2.00;;
64571;SDS011;51155;51.984;21.208;2023-11-22T02:30:58;3.90;;;2.10;;
64571;SDS011;51155;51.984;21.208;2023-11-22T02:33:30;2.90;;;1.90;;
64571;SDS011;51155;51.984;21.208;2023-11-22T02:36:02;2.80;;;1.80;;
64571;SDS011;51155;51.984;21.208;2023-11-22T02:38:34;3.40;;;1.90;;
64571;SDS011;51155;51.984;21.208;2023-11-22T02:41:08;2.90;;;1.90;;
64571;SDS011;51155;51.984;21.208;2023-11-22T02:43:41;3.10;;;1.80;;
64571;SDS011;51155;51.984;21.208;2023-11-22T02:46:18;2.20;;;1.60;;
64571;SDS011;51155;51.984;21.208;2023-11-22T02:48:50;2.70;;;1.60;;
64571;SDS011;51155;51.984;21.208;2023-11-22T02:51:25;2.40;;;1.60;;
64571;SDS011;51155;51.984;21.208;2023-11-22T02:53:57;3.10;;;2.00;;
64571;SDS011;51155;51.984;21.208;2023-11-22T02:56:29;4.00;;;1.90;;
64571;SDS011;51155;51.984;21.208;2023-11-22T02:59:00;2.10;;;1.70;;
64571;SDS011;51155;51.984;21.208;2023-11-22T03:01:32;2.20;;;1.80;;
64571;SDS011;51155;51.984;21.208;2023-11-22T03:04:07;2.40;;;1.60;;
64571;SDS011;51155;51.984;21.208;2023-11-22T03:06:40;2.70;;;1.70;;
64571;SDS011;51155;51.984;21.208;2023-11-22T03:09:17;2.90;;;1.90;;
64571;SDS011;51155;51.984;21.208;2023-11-22T03:11:54;6.50;;;1.90;;
64571;SDS011;51155;51.984;21.208;2023-11-22T03:14:29;3.60;;;1.60;;
64571;SDS011;51155;51.984;21.208;2023-11-22T03:17:01;2.00;;;1.40;;
64571;SDS011;51155;51.984;21.208;2023-11-22T03:19:36;3.40;;;1.80;;
64571;SDS011;51155;51.984;21.208;2023-11-22T03:22:11;2.10;;;1.50;;
64571;SDS011;51155;51.984;21.208;2023-11-22T03:24:47;2.50;;;1.70;;
64571;SDS011;51155;51.984;21.208;2023-11-22T03:27:22;3.00;;;1.60;;
64571;SDS011;51155;51.984;21.208;2023-11-22T03:29:59;2.90;;;1.60;;
64571;SDS011;51155;51.984;21.208;2023-11-22T03:32:34;2.70;;;1.60;;
64571;SDS011;51155;51.984;21.208;2023-11-22T03:35:12;2.80;;;1.60;;
64571;SDS011;51155;51.984;21.208;2023-11-22T03:37:47;2.80;;;1.60;;
64571;SDS011;51155;51.984;21.208;2023-11-22T03:41:05;2.40;;;1.70;;
64571;SDS011;51155;51.984;21.208;2023-11-22T03:44:39;2.90;;;1.60;;
64571;SDS011;51155;51.984;21.208;2023-11-22T03:47:15;2.50;;;1.60;;
64571;SDS011;51155;51.984;21.208;2023-11-22T03:49:51;2.70;;;1.60;;
64571;SDS011;51155;51.984;21.208;2023-11-22T03:52:27;2.50;;;1.70;;
64571;SDS011;51155;51.984;21.208;2023-11-22T03:55:03;2.40;;;1.70;;
64571;SDS011;51155;51.984;21.208;2023-11-22T03:58:39;2.20;;;1.50;;
64571;SDS011;51155;51.984;21.208;2023-11-22T04:02:12;2.60;;;1.70;;
64571;SDS011;51155;51.984;21.208;2023-11-22T04:05:47;3.00;;;1.80;;
64571;SDS011;51155;51.984;21.208;2023-11-22T04:09:28;3.10;;;1.60;;
64571;SDS011;51155;51.984;21.208;2023-11-22T04:13:04;2.60;;;1.70;;
64571;SDS011;51155;51.984;21.208;2023-11-22T04:16:43;2.00;;;1.30;;
64571;SDS011;51155;51.984;21.208;2023-11-22T04:20:21;2.00;;;1.40;;
64571;SDS011;51155;51.984;21.208;2023-11-22T04:23:54;2.50;;;1.50;;
64571;SDS011;51155;51.984;21.208;2023-11-22T04:27:34;2.80;;;1.90;;
64571;SDS011;51155;51.984;21.208;2023-11-22T04:31:09;2.70;;;1.80;;
64571;SDS011;51155;51.984;21.208;2023-11-22T04:34:47;2.30;;;1.30;;
64571;SDS011;51155;51.984;21.208;2023-11-22T04:38:24;3.40;;;1.70;;
64571;SDS011;51155;51.984;21.208;2023-11-22T04:42:02;2.10;;;1.60;;
64571;SDS011;51155;51.984;21.208;2023-11-22T04:45:42;2.40;;;1.60;;
64571;SDS011;51155;51.984;21.208;2023-11-22T04:49:21;2.50;;;1.50;;
64571;SDS011;51155;51.984;21.208;2023-11-22T04:52:55;2.30;;;1.60;;
64571;SDS011;51155;51.984;21.208;2023-11-22T04:56:32;2.40;;;1.50;;
64571;SDS011;51155;51.984;21.208;2023-11-22T05:00:11;2.30;;;1.40;;
64571;SDS011;51155;51.984;21.208;2023-11-22T05:02:47;2.70;;;1.70;;
64571;SDS011;51155;51.984;21.208;2023-11-22T05:05:24;3.20;;;1.80;;
64571;SDS011;51155;51.984;21.208;2023-11-22T05:07:59;2.60;;;1.40;;
64571;SDS011;51155;51.984;21.208;2023-11-22T05:10:34;2.00;;;1.50;;
64571;SDS011;51155;51.984;21.208;2023-11-22T05:14:04;3.70;;;2.00;;
64571;SDS011;51155;51.984;21.208;2023-11-22T05:17:37;2.80;;;1.40;;
64571;SDS011;51155;51.984;21.208;2023-11-22T05:21:14;2.20;;;1.40;;
64571;SDS011;51155;51.984;21.208;2023-11-22T05:24:53;2.40;;;1.20;;
64571;SDS011;51155;51.984;21.208;2023-11-22T05:28:34;3.00;;;1.70;;
64571;SDS011;51155;51.984;21.208;2023-11-22T05:32:07;1.90;;;1.30;;
64571;SDS011;51155;51.984;21.208;2023-11-22T05:35:47;2.10;;;1.50;;
64571;SDS011;51155;51.984;21.208;2023-11-22T05:39:22;1.80;;;1.20;;
64571;SDS011;51155;51.984;21.208;2023-11-22T05:43:02;2.50;;;1.40;;
64571;SDS011;51155;51.984;21.208;2023-11-22T05:47:01;2.80;;;1.30;;
64571;SDS011;51155;51.984;21.208;2023-11-22T05:50:17;2.20;;;1.30;;
64571;SDS011;51155;51.984;21.208;2023-11-22T05:53:57;2.60;;;1.40;;
64571;SDS011;51155;51.984;21.208;2023-11-22T06:07:56;3.00;;;1.40;;
64571;SDS011;51155;51.984;21.208;2023-11-22T06:10:32;2.60;;;1.30;;
64571;SDS011;51155;51.984;21.208;2023-11-22T06:13:08;2.00;;;1.20;;
64571;SDS011;51155;51.984;21.208;2023-11-22T06:15:43;3.50;;;1.20;;
64571;SDS011;51155;51.984;21.208;2023-11-22T06:21:09;1.80;;;1.40;;
64571;SDS011;51155;51.984;21.208;2023-11-22T06:24:32;2.70;;;1.30;;
64571;SDS011;51155;51.984;21.208;2023-11-22T06:28:12;2.10;;;1.30;;
64571;SDS011;51155;51.984;21.208;2023-11-22T06:31:55;2.10;;;1.40;;
64571;SDS011;51155;51.984;21.208;2023-11-22T06:35:24;2.40;;;1.30;;
64571;SDS011;51155;51.984;21.208;2023-11-22T06:39:02;2.80;;;1.40;;
64571;SDS011;51155;51.984;21.208;2023-11-22T06:42:53;6.90;;;1.50;;
64571;SDS011;51155;51.984;21.208;2023-11-22T06:46:31;3.70;;;1.80;;
64571;SDS011;51155;51.984;21.208;2023-11-22T06:50:20;3.00;;;1.40;;
64571;SDS011;51155;51.984;21.208;2023-11-22T06:54:02;3.20;;;1.70;;
64571;SDS011;51155;51.984;21.208;2023-11-22T07:07:35;4.20;;;1.50;;
64571;SDS011;51155;51.984;21.208;2023-11-22T07:10:10;2.10;;;1.30;;
64571;SDS011;51155;51.984;21.208;2023-11-22T07:12:48;3.30;;;1.60;;
64571;SDS011;51155;51.984;21.208;2023-11-22T07:15:22;2.50;;;1.40;;
64571;SDS011;51155;51.984;21.208;2023-11-22T07:20:35;2.80;;;1.40;;
64571;SDS011;51155;51.984;21.208;2023-11-22T07:24:14;2.30;;;1.40;;
64571;SDS011;51155;51.984;21.208;2023-11-22T07:27:45;3.90;;;1.60;;
64571;SDS011;51155;51.984;21.208;2023-11-22T07:30:18;3.30;;;1.40;;
64571;SDS011;51155;51.984;21.208;2023-11-22T07:32:52;3.30;;;1.50;;
64571;SDS011;51155;51.984;21.208;2023-11-22T07:35:24;2.30;;;1.30;;
64571;SDS011;51155;51.984;21.208;2023-11-22T07:37:57;2.90;;;1.50;;
64571;SDS011;51155;51.984;21.208;2023-11-22T07:40:30;2.30;;;1.30;;
64571;SDS011;51155;51.984;21.208;2023-11-22T07:43:02;3.70;;;1.50;;
64571;SDS011;51155;51.984;21.208;2023-11-22T07:45:36;3.90;;;1.50;;
64571;SDS011;51155;51.984;21.208;2023-11-22T07:48:29;1.80;;;1.20;;
64571;SDS011;51155;51.984;21.208;2023-11-22T07:51:01;2.30;;;1.40;;
64571;SDS011;51155;51.984;21.208;2023-11-22T07:53:34;2.50;;;1.40;;
64571;SDS011;51155;51.984;21.208;2023-11-22T07:56:06;2.20;;;1.20;;
64571;SDS011;51155;51.984;21.208;2023-11-22T07:58:38;3.70;;;1.50;;
64571;SDS011;51155;51.984;21.208;2023-11-22T08:01:10;2.60;;;1.40;;
64571;SDS011;51155;51.984;21.208;2023-11-22T08:03:46;2.80;;;1.30;;
64571;SDS011;51155;51.984;21.208;2023-11-22T08:06:19;2.70;;;1.40;;
64571;SDS011;51155;51.984;21.208;2023-11-22T08:08:56;3.70;;;1.80;;
64571;SDS011;51155;51.984;21.208;2023-11-22T08:11:33;2.90;;;1.40;;
64571;SDS011;51155;51.984;21.208;2023-11-22T08:14:05;3.50;;;1.80;;
64571;SDS011;51155;51.984;21.208;2023-11-22T08:16:37;2.40;;;1.40;;
64571;SDS011;51155;51.984;21.208;2023-11-22T08:19:11;2.00;;;1.50;;
64571;SDS011;51155;51.984;21.208;2023-11-22T08:21:43;3.50;;;1.60;;
64571;SDS011;51155;51.984;21.208;2023-11-22T08:24:15;2.60;;;1.50;;
64571;SDS011;51155;51.984;21.208;2023-11-22T08:26:46;3.60;;;1.60;;
64571;SDS011;51155;51.984;21.208;2023-11-22T08:29:18;4.50;;;1.50;;
64571;SDS011;51155;51.984;21.208;2023-11-22T08:31:50;2.30;;;1.60;;
64571;SDS011;51155;51.984;21.208;2023-11-22T08:34:22;3.30;;;1.60;;
64571;SDS011;51155;51.984;21.208;2023-11-22T08:36:54;3.40;;;1.50;;
64571;SDS011;51155;51.984;21.208;2023-11-22T08:39:29;3.10;;;1.60;;
64571;SDS011;51155;51.984;21.208;2023-11-22T08:42:01;3.00;;;1.60;;
64571;SDS011;51155;51.984;21.208;2023-11-22T08:44:32;2.70;;;1.70;;
64571;SDS011;51155;51.984;21.208;2023-11-22T08:47:06;3.90;;;1.70;;
64571;SDS011;51155;51.984;21.208;2023-11-22T08:49:37;3.60;;;1.60;;
64571;SDS011;51155;51.984;21.208;2023-11-22T08:52:09;4.80;;;3.30;;
64571;SDS011;51155;51.984;21.208;2023-11-22T08:54:41;5.70;;;4.30;;
64571;SDS011;51155;51.984;21.208;2023-11-22T08:57:12;7.20;;;4.90;;
64571;SDS011;51155;51.984;21.208;2023-11-22T08:59:44;5.40;;;3.50;;
64571;SDS011;51155;51.984;21.208;2023-11-22T09:02:16;4.90;;;3.20;;
64571;SDS011;51155;51.984;21.208;2023-11-22T09:04:49;7.90;;;3.20;;
64571;SDS011;51155;51.984;21.208;2023-11-22T09:07:20;3.70;;;2.30;;
64571;SDS011;51155;51.984;21.208;2023-11-22T09:09:53;4.80;;;3.20;;
64571;SDS011;51155;51.984;21.208;2023-11-22T09:12:25;4.20;;;2.50;;
64571;SDS011;51155;51.984;21.208;2023-11-22T09:14:58;5.30;;;2.80;;
64571;SDS011;51155;51.984;21.208;2023-11-22T09:17:30;7.90;;;2.90;;
64571;SDS011;51155;51.984;21.208;2023-11-22T09:20:02;4.10;;;2.60;;
64571;SDS011;51155;51.984;21.208;2023-11-22T09:22:34;5.70;;;2.60;;
64571;SDS011;51155;51.984;21.208;2023-11-22T09:25:06;4.60;;;2.30;;
64571;SDS011;51155;51.984;21.208;2023-11-22T09:27:43;5.10;;;2.70;;
64571;SDS011;51155;51.984;21.208;2023-11-22T09:30:22;2.60;;;2.00;;
64571;SDS011;51155;51.984;21.208;2023-11-22T09:35:40;4.60;;;2.40;;
64571;SDS011;51155;51.984;21.208;2023-11-22T09:38:13;5.90;;;2.20;;
64571;SDS011;51155;51.984;21.208;2023-11-22T09:40:47;4.10;;;2.20;;
64571;SDS011;51155;51.984;21.208;2023-11-22T09:43:19;5.50;;;2.50;;
64571;SDS011;51155;51.984;21.208;2023-11-22T09:45:52;5.70;;;2.40;;
64571;SDS011;51155;51.984;21.208;2023-11-22T09:48:29;3.60;;;2.40;;
64571;SDS011;51155;51.984;21.208;2023-11-22T09:51:05;3.60;;;2.40;;
64571;SDS011;51155;51.984;21.208;2023-11-22T09:53:43;5.90;;;2.30;;
64571;SDS011;51155;51.984;21.208;2023-11-22T09:56:17;4.50;;;2.20;;
64571;SDS011;51155;51.984;21.208;2023-11-22T09:58:54;5.80;;;2.50;;
64571;SDS011;51155;51.984;21.208;2023-11-22T10:01:27;5.00;;;2.40;;
64571;SDS011;51155;51.984;21.208;2023-11-22T10:04:00;4.40;;;2.40;;
64571;SDS011;51155;51.984;21.208;2023-11-22T10:06:32;3.50;;;2.30;;
64571;SDS011;51155;51.984;21.208;2023-11-22T10:09:06;4.00;;;2.20;;
64571;SDS011;51155;51.984;21.208;2023-11-22T10:11:40;4.70;;;2.20;;
64571;SDS011;51155;51.984;21.208;2023-11-22T10:14:22;4.00;;;2.40;;
64571;SDS011;51155;51.984;21.208;2023-11-22T10:17:02;3.90;;;2.30;;
64571;SDS011;51155;51.984;21.208;2023-11-22T10:19:34;4.50;;;2.70;;
64571;SDS011;51155;51.984;21.208;2023-11-22T10:22:07;3.00;;;2.30;;
64571;SDS011;51155;51.984;21.208;2023-11-22T10:24:40;5.60;;;2.60;;
64571;SDS011;51155;51.984;21.208;2023-11-22T10:27:12;5.50;;;2.10;;
64571;SDS011;51155;51.984;21.208;2023-11-22T10:29:44;4.20;;;2.30;;
64571;SDS011;51155;51.984;21.208;2023-11-22T10:32:18;4.70;;;2.40;;
64571;SDS011;51155;51.984;21.208;2023-11-22T10:34:50;3.90;;;2.20;;
64571;SDS011;51155;51.984;21.208;2023-11-22T10:37:22;4.90;;;2.30;;
64571;SDS011;51155;51.984;21.208;2023-11-22T10:39:56;3.90;;;2.20;;
64571;SDS011;51155;51.984;21.208;2023-11-22T10:42:27;4.40;;;2.30;;
64571;SDS011;51155;51.984;21.208;2023-11-22T10:44:59;4.60;;;2.30;;
64571;SDS011;51155;51.984;21.208;2023-11-22T10:47:37;4.00;;;2.20;;
64571;SDS011;51155;51.984;21.208;2023-11-22T10:50:09;4.30;;;2.20;;
64571;SDS011;51155;51.984;21.208;2023-11-22T10:52:43;4.40;;;2.40;;
64571;SDS011;51155;51.984;21.208;2023-11-22T10:55:17;4.30;;;2.20;;
64571;SDS011;51155;51.984;21.208;2023-11-22T10:57:51;4.50;;;2.60;;
64571;SDS011;51155;51.984;21.208;2023-11-22T11:00:26;4.00;;;2.10;;
64571;SDS011;51155;51.984;21.208;2023-11-22T11:03:03;5.00;;;2.40;;
64571;SDS011;51155;51.984;21.208;2023-11-22T11:05:38;3.70;;;2.60;;
64571;SDS011;51155;51.984;21.208;2023-11-22T11:08:13;4.80;;;2.40;;
64571;SDS011;51155;51.984;21.208;2023-11-22T11:10:48;4.20;;;1.80;;
64571;SDS011;51155;51.984;21.208;2023-11-22T11:13:21;6.80;;;2.30;;
64571;SDS011;51155;51.984;21.208;2023-11-22T11:15:55;4.90;;;2.30;;
64571;SDS011;51155;51.984;21.208;2023-11-22T11:18:27;5.00;;;2.30;;
64571;SDS011;51155;51.984;21.208;2023-11-22T11:21:00;5.70;;;2.40;;
64571;SDS011;51155;51.984;21.208;2023-11-22T11:23:39;4.30;;;2.40;;
64571;SDS011;51155;51.984;21.208;2023-11-22T11:26:19;7.20;;;2.90;;
64571;SDS011;51155;51.984;21.208;2023-11-22T11:28:53;4.70;;;2.20;;
64571;SDS011;51155;51.984;21.208;2023-11-22T11:31:31;4.80;;;2.50;;
64571;SDS011;51155;51.984;21.208;2023-11-22T11:34:07;4.60;;;2.30;;
64571;SDS011;51155;51.984;21.208;2023-11-22T11:36:40;5.00;;;2.30;;
64571;SDS011;51155;51.984;21.208;2023-11-22T11:39:12;5.00;;;2.30;;
64571;SDS011;51155;51.984;21.208;2023-11-22T11:41:46;3.80;;;2.10;;
64571;SDS011;51155;51.984;21.208;2023-11-22T11:44:18;4.00;;;2.10;;
64571;SDS011;51155;51.984;21.208;2023-11-22T11:49:23;3.90;;;1.90;;
64571;SDS011;51155;51.984;21.208;2023-11-22T11:51:54;4.10;;;2.30;;
64571;SDS011;51155;51.984;21.208;2023-11-22T11:54:26;7.00;;;2.40;;
64571;SDS011;51155;51.984;21.208;2023-11-22T11:57:01;3.30;;;2.00;;
64571;SDS011;51155;51.984;21.208;2023-11-22T11:59:33;4.60;;;2.20;;
64571;SDS011;51155;51.984;21.208;2023-11-22T12:02:06;5.10;;;2.40;;
64571;SDS011;51155;51.984;21.208;2023-11-22T12:04:38;3.30;;;2.10;;
64571;SDS011;51155;51.984;21.208;2023-11-22T12:07:12;3.70;;;2.00;;
64571;SDS011;51155;51.984;21.208;2023-11-22T12:09:44;4.30;;;1.80;;
64571;SDS011;51155;51.984;21.208;2023-11-22T12:12:18;5.00;;;2.10;;
64571;SDS011;51155;51.984;21.208;2023-11-22T12:14:49;3.20;;;2.30;;
64571;SDS011;51155;51.984;21.208;2023-11-22T12:17:22;4.10;;;2.00;;
64571;SDS011;51155;51.984;21.208;2023-11-22T12:19:55;4.50;;;1.90;;
64571;SDS011;51155;51.984;21.208;2023-11-22T12:22:40;2.90;;;2.30;;
64571;SDS011;51155;51.984;21.208;2023-11-22T12:25:14;2.70;;;1.70;;
64571;SDS011;51155;51.984;21.208;2023-11-22T12:27:46;4.10;;;1.90;;
64571;SDS011;51155;51.984;21.208;2023-11-22T12:30:34;3.50;;;1.80;;
64571;SDS011;51155;51.984;21.208;2023-11-22T12:33:08;3.80;;;1.90;;
64571;SDS011;51155;51.984;21.208;2023-11-22T12:35:42;2.30;;;1.70;;
64571;SDS011;51155;51.984;21.208;2023-11-22T12:38:15;4.50;;;2.10;;
64571;SDS011;51155;51.984;21.208;2023-11-22T12:40:48;3.80;;;1.90;;
64571;SDS011;51155;51.984;21.208;2023-11-22T12:43:19;3.20;;;1.90;;
64571;SDS011;51155;51.984;21.208;2023-11-22T12:46:01;3.90;;;1.80;;
64571;SDS011;51155;51.984;21.208;2023-11-22T12:48:33;3.80;;;1.70;;
64571;SDS011;51155;51.984;21.208;2023-11-22T12:51:17;2.10;;;1.40;;
64571;SDS011;51155;51.984;21.208;2023-11-22T12:53:53;3.10;;;1.90;;
64571;SDS011;51155;51.984;21.208;2023-11-22T12:56:25;3.30;;;1.70;;
64571;SDS011;51155;51.984;21.208;2023-11-22T12:59:00;3.20;;;1.60;;
64571;SDS011;51155;51.984;21.208;2023-11-22T13:01:32;2.30;;;1.70;;
64571;SDS011;51155;51.984;21.208;2023-11-22T13:04:06;2.90;;;1.80;;
64571;SDS011;51155;51.984;21.208;2023-11-22T13:09:10;3.50;;;1.90;;
64571;SDS011;51155;51.984;21.208;2023-11-22T13:11:46;3.40;;;1.90;;
64571;SDS011;51155;51.984;21.208;2023-11-22T13:14:19;7.20;;;2.40;;
64571;SDS011;51155;51.984;21.208;2023-11-22T13:16:50;4.70;;;2.60;;
64571;SDS011;51155;51.984;21.208;2023-11-22T13:19:22;5.60;;;3.00;;
64571;SDS011;51155;51.984;21.208;2023-11-22T13:21:54;6.00;;;3.40;;
64571;SDS011;51155;51.984;21.208;2023-11-22T13:24:25;6.00;;;3.00;;
64571;SDS011;51155;51.984;21.208;2023-11-22T13:26:57;6.00;;;3.60;;
64571;SDS011;51155;51.984;21.208;2023-11-22T13:29:28;5.60;;;3.30;;
64571;SDS011;51155;51.984;21.208;2023-11-22T13:32:00;7.50;;;3.10;;
64571;SDS011;51155;51.984;21.208;2023-11-22T13:34:32;6.50;;;3.80;;
64571;SDS011;51155;51.984;21.208;2023-11-22T13:37:03;5.90;;;3.40;;
64571;SDS011;51155;51.984;21.208;2023-11-22T13:39:37;5.20;;;3.20;;
64571;SDS011;51155;51.984;21.208;2023-11-22T13:42:11;5.40;;;3.30;;
64571;SDS011;51155;51.984;21.208;2023-11-22T13:44:43;5.80;;;3.60;;
64571;SDS011;51155;51.984;21.208;2023-11-22T13:47:18;5.10;;;3.30;;
64571;SDS011;51155;51.984;21.208;2023-11-22T13:49:50;7.70;;;3.50;;
64571;SDS011;51155;51.984;21.208;2023-11-22T13:52:21;6.30;;;3.10;;
64571;SDS011;51155;51.984;21.208;2023-11-22T13:54:53;5.20;;;3.00;;
64571;SDS011;51155;51.984;21.208;2023-11-22T13:57:31;5.80;;;3.10;;
64571;SDS011;51155;51.984;21.208;2023-11-22T14:00:07;6.20;;;3.60;;
64571;SDS011;51155;51.984;21.208;2023-11-22T14:02:46;6.00;;;2.80;;
64571;SDS011;51155;51.984;21.208;2023-11-22T14:05:19;4.20;;;2.60;;
64571;SDS011;51155;51.984;21.208;2023-11-22T14:07:50;5.60;;;2.50;;
64571;SDS011;51155;51.984;21.208;2023-11-22T14:10:24;5.30;;;2.80;;
64571;SDS011;51155;51.984;21.208;2023-11-22T14:15:32;3.70;;;2.20;;
64571;SDS011;51155;51.984;21.208;2023-11-22T14:18:04;4.50;;;2.80;;
64571;SDS011;51155;51.984;21.208;2023-11-22T14:20:36;5.40;;;2.60;;
64571;SDS011;51155;51.984;21.208;2023-11-22T14:23:08;5.40;;;2.90;;
64571;SDS011;51155;51.984;21.208;2023-11-22T14:25:40;6.40;;;3.20;;
64571;SDS011;51155;51.984;21.208;2023-11-22T14:28:13;5.80;;;3.10;;
64571;SDS011;51155;51.984;21.208;2023-11-22T14:30:45;5.60;;;3.20;;
64571;SDS011;51155;51.984;21.208;2023-11-22T14:33:17;5.60;;;3.60;;
64571;SDS011;51155;51.984;21.208;2023-11-22T14:35:49;8.20;;;3.60;;
64571;SDS011;51155;51.984;21.208;2023-11-22T14:38:20;6.90;;;3.70;;
64571;SDS011;51155;51.984;21.208;2023-11-22T14:40:53;5.10;;;3.40;;
64571;SDS011;51155;51.984;21.208;2023-11-22T14:43:25;7.60;;;4.00;;
64571;SDS011;51155;51.984;21.208;2023-11-22T14:45:56;6.30;;;3.60;;
64571;SDS011;51155;51.984;21.208;2023-11-22T14:48:28;5.90;;;3.80;;
64571;SDS011;51155;51.984;21.208;2023-11-22T14:50:59;7.30;;;4.00;;
64571;SDS011;51155;51.984;21.208;2023-11-22T14:53:40;6.90;;;3.80;;
64571;SDS011;51155;51.984;21.208;2023-11-22T14:56:14;7.40;;;4.20;;
64571;SDS011;51155;51.984;21.208;2023-11-22T14:58:45;9.50;;;4.70;;
64571;SDS011;51155;51.984;21.208;2023-11-22T15:01:25;6.10;;;4.20;;
64571;SDS011;51155;51.984;21.208;2023-11-22T15:03:57;9.30;;;4.50;;
64571;SDS011;51155;51.984;21.208;2023-11-22T15:06:29;7.10;;;4.60;;
64571;SDS011;51155;51.984;21.208;2023-11-22T15:09:02;8.50;;;4.90;;
64571;SDS011;51155;51.984;21.208;2023-11-22T15:11:42;7.90;;;4.70;;
64571;SDS011;51155;51.984;21.208;2023-11-22T15:14:13;6.60;;;4.40;;
64571;SDS011;51155;51.984;21.208;2023-11-22T15:16:45;7.10;;;4.00;;
64571;SDS011;51155;51.984;21.208;2023-11-22T15:19:17;8.50;;;4.70;;
64571;SDS011;51155;51.984;21.208;2023-11-22T15:21:52;8.70;;;4.70;;
64571;SDS011;51155;51.984;21.208;2023-11-22T15:24:24;7.50;;;4.90;;
64571;SDS011;51155;51.984;21.208;2023-11-22T15:27:00;10.00;;;5.00;;
64571;SDS011;51155;51.984;21.208;2023-11-22T15:29:32;8.10;;;5.40;;
64571;SDS011;51155;51.984;21.208;2023-11-22T15:32:04;9.30;;;5.80;;
64571;SDS011;51155;51.984;21.208;2023-11-22T15:34:36;10.00;;;6.40;;
64571;SDS011;51155;51.984;21.208;2023-11-22T15:37:09;9.90;;;6.10;;
64571;SDS011;51155;51.984;21.208;2023-11-22T15:39:43;10.70;;;5.80;;
64571;SDS011;51155;51.984;21.208;2023-11-22T15:42:15;8.20;;;5.90;;
64571;SDS011;51155;51.984;21.208;2023-11-22T15:44:47;9.50;;;5.50;;
64571;SDS011;51155;51.984;21.208;2023-11-22T15:47:19;10.20;;;6.30;;
64571;SDS011;51155;51.984;21.208;2023-11-22T15:49:51;10.70;;;5.70;;
64571;SDS011;51155;51.984;21.208;2023-11-22T15:52:22;9.40;;;6.30;;
64571;SDS011;51155;51.984;21.208;2023-11-22T15:54:54;9.30;;;6.20;;
64571;SDS011;51155;51.984;21.208;2023-11-22T15:57:26;10.20;;;6.70;;
64571;SDS011;51155;51.984;21.208;2023-11-22T15:59:57;8.80;;;6.00;;
64571;SDS011;51155;51.984;21.208;2023-11-22T16:02:29;8.90;;;6.10;;
64571;SDS011;51155;51.984;21.208;2023-11-22T16:05:01;9.40;;;5.70;;
64571;SDS011;51155;51.984;21.208;2023-11-22T16:07:32;10.90;;;6.60;;
64571;SDS011;51155;51.984;21.208;2023-11-22T16:10:05;10.60;;;6.60;;
64571;SDS011;51155;51.984;21.208;2023-11-22T16:12:39;10.60;;;6.60;;
64571;SDS011;51155;51.984;21.208;2023-11-22T16:15:11;11.20;;;6.90;;
64571;SDS011;51155;51.984;21.208;2023-11-22T16:17:43;11.10;;;6.90;;
64571;SDS011;51155;51.984;21.208;2023-11-22T16:20:15;10.20;;;6.70;;
64571;SDS011;51155;51.984;21.208;2023-11-22T16:22:47;12.00;;;7.00;;
64571;SDS011;51155;51.984;21.208;2023-11-22T16:25:22;10.70;;;7.30;;
64571;SDS011;51155;51.984;21.208;2023-11-22T16:28:04;12.60;;;7.60;;
64571;SDS011;51155;51.984;21.208;2023-11-22T16:30:39;11.30;;;7.10;;
64571;SDS011;51155;51.984;21.208;2023-11-22T16:33:17;10.80;;;6.90;;